createdAt,value
2023-03-26T00:01:23.953Z,17.23
2023-03-26T00:04:00.529Z,17.22
2023-03-26T00:06:41.782Z,17.20
2023-03-26T00:09:20.619Z,17.20
2023-03-26T00:12:00.675Z,17.19
2023-03-26T00:14:41.700Z,17.19
2023-03-26T00:17:21.431Z,17.19
2023-03-26T00:20:00.489Z,17.18
2023-03-26T00:22:41.851Z,17.18
2023-03-26T00:25:22.565Z,17.16
2023-03-26T00:28:00.890Z,17.15
2023-03-26T00:30:41.931Z,17.15
2023-03-26T00:33:20.478Z,17.15
2023-03-26T00:36:04.760Z,17.13
2023-03-26T00:38:41.849Z,17.12
2023-03-26T00:41:25.492Z,17.12
2023-03-26T00:44:00.544Z,17.11
2023-03-26T00:46:40.845Z,17.12
2023-03-26T00:49:20.568Z,17.11
2023-03-26T00:52:04.108Z,17.10
2023-03-26T00:54:41.321Z,17.09
2023-03-26T00:57:34.589Z,17.08
2023-03-26T01:00:16.980Z,17.08
2023-03-26T01:02:50.764Z,17.08
2023-03-26T01:05:36.221Z,17.07
2023-03-26T01:08:17.724Z,17.06
2023-03-26T01:10:51.330Z,17.06
2023-03-26T01:13:41.101Z,17.06
2023-03-26T01:16:23.901Z,17.04
2023-03-26T01:19:00.900Z,17.04
2023-03-26T01:21:40.664Z,17.03
2023-03-26T01:24:20.891Z,17.02
2023-03-26T01:27:20.828Z,17.01
2023-03-26T01:30:13.385Z,17.01
2023-03-26T01:33:07.829Z,16.99
2023-03-26T01:35:52.811Z,16.98
2023-03-26T01:39:02.943Z,17.00
2023-03-26T01:41:54.129Z,16.98
2023-03-26T01:44:36.687Z,16.94
2023-03-26T01:47:12.838Z,16.95
2023-03-26T01:49:50.556Z,16.94
2023-03-26T01:52:32.289Z,16.93
2023-03-26T01:55:12.755Z,16.94
2023-03-26T01:57:53.190Z,16.94
2023-03-26T02:00:34.042Z,16.93
2023-03-26T02:03:27.251Z,16.92
2023-03-26T02:06:37.746Z,16.92
2023-03-26T02:09:17.682Z,16.90
2023-03-26T02:11:51.328Z,16.89
2023-03-26T02:14:32.552Z,16.87
2023-03-26T02:17:12.225Z,16.90
2023-03-26T02:19:51.510Z,16.88
2023-03-26T02:22:30.424Z,16.88
2023-03-26T02:25:13.963Z,16.87
2023-03-26T02:27:52.845Z,16.88
2023-03-26T02:30:33.741Z,16.86
2023-03-26T02:33:15.435Z,16.86
2023-03-26T02:35:50.817Z,16.83
2023-03-26T02:38:35.271Z,16.84
2023-03-26T02:41:10.721Z,16.83
2023-03-26T02:44:10.561Z,16.82
2023-03-26T02:47:10.627Z,16.82
2023-03-26T02:50:01.605Z,16.81
2023-03-26T02:53:00.853Z,16.79
2023-03-26T02:55:41.642Z,16.81
2023-03-26T02:58:20.720Z,16.80
2023-03-26T03:01:03.245Z,16.74
2023-03-26T03:03:50.670Z,16.78
2023-03-26T03:06:41.075Z,16.76
2023-03-26T03:09:20.613Z,16.76
2023-03-26T03:12:20.747Z,16.75
2023-03-26T03:15:00.848Z,16.74
2023-03-26T03:17:41.559Z,16.74
2023-03-26T03:20:22.087Z,16.74
2023-03-26T03:23:00.452Z,16.73
2023-03-26T03:25:41.279Z,16.72
2023-03-26T03:28:20.602Z,16.73
2023-03-26T03:31:00.421Z,16.71
2023-03-26T03:33:42.982Z,16.72
2023-03-26T03:36:23.224Z,16.69
2023-03-26T03:39:10.585Z,16.71
2023-03-26T03:41:50.536Z,16.70
2023-03-26T03:44:30.703Z,16.69
2023-03-26T03:47:14.055Z,16.68
2023-03-26T03:49:51.392Z,16.69
2023-03-26T03:52:30.451Z,16.67
2023-03-26T03:55:10.704Z,16.66
2023-03-26T03:58:02.068Z,16.66
2023-03-26T04:00:41.728Z,16.65
2023-03-26T04:03:40.655Z,16.65
2023-03-26T04:06:20.454Z,16.65
2023-03-26T04:09:00.530Z,16.62
2023-03-26T04:11:40.511Z,16.63
2023-03-26T04:14:50.720Z,16.62
2023-03-26T04:17:30.749Z,16.62
2023-03-26T04:20:14.960Z,16.61
2023-03-26T04:22:50.555Z,16.59
2023-03-26T04:25:33.377Z,16.58
2023-03-26T04:28:53.432Z,16.59
2023-03-26T04:31:31.244Z,16.57
2023-03-26T04:34:24.392Z,16.57
2023-03-26T04:37:28.500Z,16.56
2023-03-26T04:40:22.172Z,16.55
2023-03-26T04:43:20.496Z,16.55
2023-03-26T04:46:10.693Z,16.54
2023-03-26T04:49:01.210Z,16.53
2023-03-26T04:51:42.362Z,16.53
2023-03-26T04:54:43.164Z,16.52
2023-03-26T04:57:26.096Z,16.50
2023-03-26T05:00:20.683Z,16.50
2023-03-26T05:03:01.760Z,16.48
2023-03-26T05:05:41.032Z,16.47
2023-03-26T05:08:20.719Z,16.47
2023-03-26T05:11:00.512Z,16.47
2023-03-26T05:13:43.058Z,16.47
2023-03-26T05:16:23.064Z,16.45
2023-03-26T05:19:11.025Z,16.43
2023-03-26T05:21:50.873Z,16.45
2023-03-26T05:24:30.712Z,16.44
2023-03-26T05:27:16.958Z,16.43
2023-03-26T05:29:50.511Z,16.43
2023-03-26T05:32:31.761Z,16.41
2023-03-26T05:35:11.750Z,16.42
2023-03-26T05:37:51.568Z,16.40
2023-03-26T05:40:30.515Z,16.40
2023-03-26T05:43:10.506Z,16.40
2023-03-26T05:45:50.556Z,16.39
2023-03-26T05:48:30.866Z,16.37
2023-03-26T05:51:10.602Z,16.36
2023-03-26T05:53:50.645Z,16.37
2023-03-26T05:56:30.778Z,16.37
2023-03-26T05:59:30.601Z,16.37
2023-03-26T06:02:30.782Z,16.37
2023-03-26T06:05:37.486Z,16.38
2023-03-26T06:08:22.018Z,16.40
2023-03-26T06:11:03.994Z,16.40
2023-03-26T06:13:50.539Z,16.44
2023-03-26T06:16:31.624Z,16.45
2023-03-26T06:19:30.729Z,16.49
2023-03-26T06:22:11.041Z,16.50
2023-03-26T06:25:10.465Z,16.54
2023-03-26T06:28:10.484Z,16.56
2023-03-26T06:30:51.508Z,16.57
2023-03-26T06:33:50.582Z,16.59
2023-03-26T06:36:30.798Z,16.61
2023-03-26T06:39:10.558Z,16.62
2023-03-26T06:41:50.517Z,16.65
2023-03-26T06:44:50.656Z,16.66
2023-03-26T06:47:50.666Z,16.68
2023-03-26T06:50:32.253Z,16.70
2023-03-26T06:53:40.775Z,16.72
2023-03-26T06:56:30.568Z,16.73
2023-03-26T06:59:40.849Z,16.76
2023-03-26T07:02:53.620Z,16.75
2023-03-26T07:05:50.632Z,16.77
2023-03-26T07:08:50.527Z,16.80
2023-03-26T07:11:58.211Z,16.81
2023-03-26T07:15:11.409Z,16.81
2023-03-26T07:18:21.326Z,16.82
2023-03-26T07:21:00.802Z,16.84
2023-03-26T07:23:41.427Z,16.84
2023-03-26T07:27:11.122Z,16.85
2023-03-26T07:30:07.247Z,16.86
2023-03-26T07:33:10.888Z,16.87
2023-03-26T07:36:33.469Z,16.87
2023-03-26T07:39:43.463Z,16.87
2023-03-26T07:42:38.175Z,16.88
2023-03-26T07:45:51.200Z,16.88
2023-03-26T07:48:43.639Z,16.89
2023-03-26T07:51:42.214Z,16.89
2023-03-26T07:54:30.885Z,16.90
2023-03-26T07:57:54.718Z,16.91
2023-03-26T08:01:08.203Z,16.90
2023-03-26T08:04:24.050Z,16.91
2023-03-26T08:07:54.594Z,16.89
2023-03-26T08:11:09.862Z,16.91
2023-03-26T08:14:15.457Z,16.91
2023-03-26T08:17:17.574Z,16.91
2023-03-26T08:20:15.021Z,16.91
2023-03-26T08:22:59.901Z,16.90
2023-03-26T08:26:09.612Z,16.91
2023-03-26T08:28:57.274Z,16.90
2023-03-26T08:31:36.200Z,16.92
2023-03-26T08:34:12.309Z,16.89
2023-03-26T08:36:50.548Z,16.90
2023-03-26T08:39:32.219Z,16.87
2023-03-26T08:42:19.090Z,16.85
2023-03-26T08:45:00.534Z,16.82
2023-03-26T08:47:53.004Z,16.84
2023-03-26T08:50:42.800Z,16.81
2023-03-26T08:53:36.401Z,16.77
2023-03-26T08:56:38.337Z,16.80
2023-03-26T08:59:35.872Z,16.79
2023-03-26T09:02:35.328Z,16.78
2023-03-26T09:05:30.379Z,16.79
2023-03-26T09:08:13.493Z,16.79
2023-03-26T09:11:07.224Z,16.77
2023-03-26T09:13:59.234Z,16.80
2023-03-26T09:16:43.657Z,16.80
2023-03-26T09:20:15.555Z,16.81
2023-03-26T09:23:15.601Z,16.78
2023-03-26T09:26:15.033Z,16.79
2023-03-26T09:29:08.962Z,16.80
2023-03-26T09:32:15.873Z,16.78
2023-03-26T09:35:00.253Z,16.77
2023-03-26T09:38:01.142Z,16.77
2023-03-26T09:41:02.362Z,16.74
2023-03-26T09:43:52.465Z,16.76
2023-03-26T09:46:52.599Z,16.76
2023-03-26T09:49:53.639Z,16.74
2023-03-26T09:53:02.986Z,16.74
2023-03-26T09:56:03.309Z,16.79
2023-03-26T09:58:48.048Z,16.80
2023-03-26T10:01:42.848Z,16.81
2023-03-26T10:04:54.138Z,16.81
2023-03-26T10:08:01.651Z,16.83
2023-03-26T10:10:46.048Z,16.82
2023-03-26T10:13:20.520Z,16.82
2023-03-26T10:16:00.419Z,16.83
2023-03-26T10:18:52.612Z,16.84
2023-03-26T10:21:47.783Z,16.83
2023-03-26T10:24:37.963Z,16.84
2023-03-26T10:27:44.876Z,16.83
2023-03-26T10:30:59.116Z,16.83
2023-03-26T10:34:28.556Z,16.83
2023-03-26T10:37:23.420Z,16.83
2023-03-26T10:40:34.859Z,16.86
2023-03-26T10:43:36.383Z,16.87
2023-03-26T10:46:36.571Z,16.88
2023-03-26T10:49:16.643Z,16.90
2023-03-26T10:51:58.537Z,16.90
2023-03-26T10:54:58.309Z,16.90
2023-03-26T10:57:46.015Z,16.92
2023-03-26T11:00:29.233Z,16.93
2023-03-26T11:03:42.611Z,16.92
2023-03-26T11:06:21.112Z,16.93
2023-03-26T11:09:31.586Z,16.94
2023-03-26T11:12:29.287Z,16.92
2023-03-26T11:15:16.960Z,16.91
2023-03-26T11:18:30.023Z,16.89
2023-03-26T11:21:20.837Z,16.87
2023-03-26T11:24:35.223Z,16.86
2023-03-26T11:27:21.319Z,16.82
2023-03-26T11:30:23.529Z,16.80
2023-03-26T11:33:05.872Z,16.81
2023-03-26T11:35:45.744Z,16.78
2023-03-26T11:38:27.355Z,16.79
2023-03-26T11:41:04.243Z,16.77
2023-03-26T11:44:07.367Z,16.76
2023-03-26T11:46:45.983Z,16.77
2023-03-26T11:49:24.018Z,16.76
2023-03-26T11:52:01.970Z,16.75
2023-03-26T11:54:40.702Z,16.76
2023-03-26T11:57:28.613Z,16.74
2023-03-26T12:00:21.863Z,16.74
2023-03-26T12:03:00.981Z,16.72
2023-03-26T12:05:53.744Z,16.72
2023-03-26T12:08:38.880Z,16.71
2023-03-26T12:11:27.328Z,16.71
2023-03-26T12:14:18.426Z,16.71
2023-03-26T12:17:04.669Z,16.71
2023-03-26T12:19:44.255Z,16.70
2023-03-26T12:22:38.245Z,16.69
2023-03-26T12:25:30.515Z,16.71
2023-03-26T12:28:13.840Z,16.70
2023-03-26T12:31:04.329Z,16.71
2023-03-26T12:33:41.758Z,16.69
2023-03-26T12:36:25.666Z,16.70
2023-03-26T12:39:16.754Z,16.68
2023-03-26T12:44:43.724Z,16.67
2023-03-26T12:45:01.190Z,16.66
2023-03-26T12:48:00.251Z,16.65
2023-03-26T12:51:17.927Z,16.63
2023-03-26T12:54:19.841Z,16.60
2023-03-26T12:57:17.037Z,16.61
2023-03-26T13:00:24.683Z,16.61
2023-03-26T13:03:20.468Z,16.58
2023-03-26T13:06:20.736Z,16.59
2023-03-26T13:09:09.698Z,16.57
2023-03-26T13:12:09.111Z,16.56
2023-03-26T13:14:53.358Z,16.54
2023-03-26T13:17:40.194Z,16.53
2023-03-26T13:20:48.900Z,16.53
2023-03-26T13:23:51.813Z,16.53
2023-03-26T13:26:37.673Z,16.53
2023-03-26T13:29:29.200Z,16.53
2023-03-26T13:32:46.548Z,16.52
2023-03-26T13:36:24.390Z,16.52
2023-03-26T13:39:30.583Z,16.53
2023-03-26T13:42:29.006Z,16.53
2023-03-26T13:45:21.108Z,16.54
2023-03-26T13:48:04.687Z,16.56
2023-03-26T13:50:52.336Z,16.58
2023-03-26T13:53:43.852Z,16.61
2023-03-26T13:56:36.723Z,16.63
2023-03-26T13:59:35.140Z,16.64
2023-03-26T14:02:36.636Z,16.70
2023-03-26T14:05:13.406Z,16.72
2023-03-26T14:07:55.067Z,16.74
2023-03-26T14:10:39.968Z,16.75
2023-03-26T14:13:38.817Z,16.80
2023-03-26T14:16:45.505Z,16.81
2023-03-26T14:19:57.918Z,16.83
2023-03-26T14:23:06.676Z,16.83
2023-03-26T14:26:08.316Z,16.85
2023-03-26T14:29:02.655Z,16.86
2023-03-26T14:32:01.830Z,16.88
2023-03-26T14:34:57.128Z,16.89
2023-03-26T14:37:58.753Z,16.90
2023-03-26T14:41:26.692Z,16.91
2023-03-26T14:44:30.790Z,16.90
2023-03-26T14:47:38.179Z,16.92
2023-03-26T14:50:46.991Z,16.93
2023-03-26T14:53:37.450Z,16.93
2023-03-26T14:56:19.495Z,16.94
2023-03-26T14:59:51.218Z,16.94
2023-03-26T15:02:57.989Z,16.96
2023-03-26T15:06:04.492Z,16.97
2023-03-26T15:09:11.392Z,16.99
2023-03-26T15:12:12.606Z,16.98
2023-03-26T15:15:16.480Z,16.98
2023-03-26T15:18:19.642Z,16.99
2023-03-26T15:21:24.790Z,16.98
2023-03-26T15:24:21.979Z,16.98
2023-03-26T15:27:18.892Z,16.96
2023-03-26T15:30:29.581Z,16.96
2023-03-26T15:33:18.363Z,16.94
2023-03-26T15:36:32.553Z,16.96
2023-03-26T15:39:23.516Z,16.94
2023-03-26T15:42:25.780Z,16.95
2023-03-26T15:45:22.632Z,16.94
2023-03-26T15:48:12.961Z,16.93
2023-03-26T15:51:02.849Z,16.93
2023-03-26T15:53:43.483Z,16.94
2023-03-26T15:56:49.301Z,16.94
2023-03-26T15:59:37.199Z,16.94
2023-03-26T16:02:22.862Z,16.95
2023-03-26T16:05:08.559Z,16.96
2023-03-26T16:07:53.403Z,16.98
2023-03-26T16:10:56.297Z,16.98
2023-03-26T16:13:58.484Z,16.99
2023-03-26T16:16:58.718Z,17.00
2023-03-26T16:19:49.856Z,17.00
2023-03-26T16:22:49.233Z,17.01
2023-03-26T16:25:35.576Z,17.00
2023-03-26T16:28:10.572Z,17.01
2023-03-26T16:31:10.671Z,17.01
2023-03-26T16:34:26.393Z,17.00
2023-03-26T16:37:00.811Z,17.00
2023-03-26T16:39:42.501Z,17.01
2023-03-26T16:42:33.248Z,17.01
2023-03-26T16:45:22.631Z,17.02
2023-03-26T16:48:03.545Z,17.02
2023-03-26T16:51:18.700Z,17.01
2023-03-26T16:54:22.911Z,17.00
2023-03-26T16:57:16.226Z,17.00
2023-03-26T17:00:08.374Z,16.99
2023-03-26T17:03:24.298Z,16.99
2023-03-26T17:06:49.925Z,16.99
2023-03-26T17:09:54.707Z,16.96
2023-03-26T17:12:55.509Z,16.96
2023-03-26T17:15:45.166Z,16.95
2023-03-26T17:19:18.240Z,16.94
2023-03-26T17:22:07.036Z,16.93
2023-03-26T17:25:11.862Z,16.95
2023-03-26T17:28:19.039Z,16.95
2023-03-26T17:31:20.141Z,16.96
2023-03-26T17:34:34.999Z,16.98
2023-03-26T17:37:22.260Z,16.99
2023-03-26T17:40:00.631Z,16.99
2023-03-26T17:43:01.718Z,16.98
2023-03-26T17:45:43.891Z,16.99
2023-03-26T17:48:26.221Z,16.99
2023-03-26T17:51:28.646Z,17.00
2023-03-26T17:54:22.776Z,16.99
2023-03-26T17:57:05.259Z,16.99
2023-03-26T17:59:43.625Z,16.99
2023-03-26T18:02:29.114Z,16.98
2023-03-26T18:05:15.608Z,16.99
2023-03-26T18:07:53.707Z,16.98
2023-03-26T18:10:45.711Z,16.98
2023-03-26T18:13:32.840Z,16.97
2023-03-26T18:16:17.894Z,16.96
2023-03-26T18:18:53.489Z,16.96
2023-03-26T18:21:37.311Z,16.97
2023-03-26T18:24:16.656Z,16.96
2023-03-26T18:27:06.833Z,16.97
2023-03-26T18:30:02.771Z,16.98
2023-03-26T18:32:52.762Z,16.98
2023-03-26T18:35:54.171Z,16.98
2023-03-26T18:38:36.027Z,16.99
2023-03-26T18:41:45.928Z,16.99
2023-03-26T18:44:20.827Z,17.01
2023-03-26T18:47:00.547Z,17.01
2023-03-26T18:49:45.621Z,17.02
2023-03-26T18:52:21.525Z,17.02
2023-03-26T18:55:03.114Z,17.02
2023-03-26T18:57:42.618Z,17.03
2023-03-26T19:00:26.024Z,17.02
2023-03-26T19:03:06.640Z,17.03
2023-03-26T19:05:40.933Z,17.04
2023-03-26T19:08:23.933Z,17.04
2023-03-26T19:11:04.986Z,17.04
2023-03-26T19:13:41.897Z,17.04
2023-03-26T19:16:25.671Z,17.02
2023-03-26T19:19:04.572Z,17.03
2023-03-26T19:21:41.537Z,17.04
2023-03-26T19:24:21.438Z,17.04
2023-03-26T19:27:01.284Z,17.03
2023-03-26T19:29:44.246Z,17.02
2023-03-26T19:32:32.848Z,17.01
2023-03-26T19:35:22.978Z,17.03
2023-03-26T19:38:01.515Z,17.01
2023-03-26T19:40:43.438Z,17.00
2023-03-26T19:43:20.906Z,17.02
2023-03-26T19:46:01.225Z,17.02
2023-03-26T19:48:46.642Z,17.01
2023-03-26T19:51:32.314Z,17.00
2023-03-26T19:54:16.148Z,17.02
2023-03-26T19:56:51.098Z,17.02
2023-03-26T19:59:32.107Z,17.02
2023-03-26T20:02:12.761Z,17.02
2023-03-26T20:04:50.961Z,17.02
2023-03-26T20:07:35.370Z,17.02
2023-03-26T20:10:12.202Z,17.05
2023-03-26T20:12:50.761Z,17.04
2023-03-26T20:15:34.536Z,17.05
2023-03-26T20:18:12.306Z,17.06
2023-03-26T20:20:54.281Z,17.07
2023-03-26T20:23:31.652Z,17.07
2023-03-26T20:26:17.733Z,17.06
2023-03-26T20:28:53.416Z,17.07
2023-03-26T20:31:31.900Z,17.07
2023-03-26T20:34:20.296Z,17.08
2023-03-26T20:37:01.549Z,17.10
2023-03-26T20:39:41.776Z,17.07
2023-03-26T20:42:21.782Z,17.10
2023-03-26T20:45:01.168Z,17.10
2023-03-26T20:47:40.996Z,17.06
2023-03-26T20:50:23.323Z,17.08
2023-03-26T20:53:00.608Z,17.09
2023-03-26T20:55:44.097Z,17.08
2023-03-26T20:58:30.821Z,17.09
2023-03-26T21:01:12.247Z,17.09
2023-03-26T21:03:51.163Z,17.08
2023-03-26T21:06:31.074Z,17.09
2023-03-26T21:09:17.906Z,17.09
2023-03-26T21:11:50.899Z,17.11
2023-03-26T21:14:34.167Z,17.12
2023-03-26T21:17:16.302Z,17.12
2023-03-26T21:19:51.020Z,17.12
2023-03-26T21:22:46.365Z,17.12
2023-03-26T21:25:39.712Z,17.11
2023-03-26T21:28:42.042Z,17.11
2023-03-26T21:31:23.407Z,17.10
2023-03-26T21:34:00.842Z,17.10
2023-03-26T21:36:42.025Z,17.10
2023-03-26T21:39:21.003Z,17.11
2023-03-26T21:42:04.878Z,17.09
2023-03-26T21:44:41.483Z,17.09
2023-03-26T21:47:21.537Z,17.08
2023-03-26T21:50:00.922Z,17.08
2023-03-26T21:52:49.735Z,17.09
2023-03-26T21:55:42.159Z,17.08
2023-03-26T21:58:30.094Z,17.08
2023-03-26T22:01:31.013Z,17.06
2023-03-26T22:04:26.487Z,17.07
2023-03-26T22:07:25.910Z,17.06
2023-03-26T22:10:01.708Z,17.05
2023-03-26T22:12:41.707Z,17.04
2023-03-26T22:15:26.158Z,17.03
2023-03-26T22:18:03.324Z,17.03
2023-03-26T22:20:42.977Z,16.99
2023-03-26T22:23:21.333Z,17.02
2023-03-26T22:26:00.934Z,16.98
2023-03-26T22:28:45.150Z,16.96
2023-03-26T22:31:20.871Z,16.99
2023-03-26T22:34:00.636Z,16.96
2023-03-26T22:36:40.666Z,16.96
2023-03-26T22:39:20.691Z,16.95
2023-03-26T22:42:02.735Z,16.94
2023-03-26T22:44:41.298Z,16.94
2023-03-26T22:47:21.931Z,16.92
2023-03-26T22:50:03.307Z,16.90
2023-03-26T22:52:41.316Z,16.90
2023-03-26T22:55:29.307Z,16.89
2023-03-26T22:58:10.985Z,16.87
2023-03-26T23:01:12.168Z,16.86
2023-03-26T23:03:50.656Z,16.85
2023-03-26T23:06:36.773Z,16.84
2023-03-26T23:09:10.729Z,16.81
2023-03-26T23:11:51.067Z,16.82
2023-03-26T23:14:37.847Z,16.81
2023-03-26T23:17:14.752Z,16.78
2023-03-26T23:19:50.760Z,16.78
2023-03-26T23:22:30.485Z,16.76
2023-03-26T23:25:16.034Z,16.76
2023-03-26T23:27:50.770Z,16.74
2023-03-26T23:30:31.260Z,16.73
2023-03-26T23:33:11.272Z,16.72
2023-03-26T23:35:57.869Z,16.72
2023-03-26T23:39:28.675Z,16.70
2023-03-26T23:42:11.863Z,16.67
2023-03-26T23:44:51.583Z,16.66
2023-03-26T23:47:34.904Z,16.65
2023-03-26T23:50:14.737Z,16.63
2023-03-26T23:52:58.155Z,16.64
2023-03-26T23:56:13.425Z,16.61
2023-03-26T23:58:51.628Z,16.61
